createdAt,value
2016-10-21T00:00:00.287Z,0
2016-10-21T00:01:00.244Z,0
2016-10-21T00:02:00.203Z,0
2016-10-21T00:02:59.860Z,0
2016-10-21T00:03:59.826Z,0
2016-10-21T00:05:00.088Z,0
2016-10-21T00:05:59.448Z,0
2016-10-21T00:06:59.748Z,0
2016-10-21T00:07:59.681Z,0
2016-10-21T00:08:59.932Z,0
2016-10-21T00:09:59.628Z,0
2016-10-21T00:10:59.562Z,0
2016-10-21T00:11:58.963Z,0
2016-10-21T00:12:59.784Z,0
2016-10-21T00:13:59.444Z,0
2016-10-21T00:14:59.406Z,0
2016-10-21T00:15:59.372Z,0
2016-10-21T00:16:59.336Z,0
2016-10-21T00:17:59.287Z,0
2016-10-21T00:18:58.647Z,0
2016-10-21T00:19:59.522Z,0
2016-10-21T00:20:59.479Z,0
2016-10-21T00:21:59.482Z,0
2016-10-21T00:22:59.115Z,0
2016-10-21T00:23:59.366Z,0
2016-10-21T00:24:59.021Z,0
2016-10-21T00:25:59.293Z,0
2016-10-21T00:26:59.250Z,0
2016-10-21T00:27:58.602Z,0
2016-10-21T00:28:58.874Z,0
2016-10-21T00:29:58.838Z,0
2016-10-21T00:30:58.233Z,0
2016-10-21T00:31:58.762Z,0
2016-10-21T00:32:59.027Z,0
2016-10-21T00:33:58.077Z,0
2016-10-21T00:34:58.948Z,0
2016-10-21T00:35:58.938Z,0
2016-10-21T00:36:58.882Z,0
2016-10-21T00:37:58.527Z,0
2016-10-21T00:38:58.803Z,0
2016-10-21T00:39:58.765Z,0
2016-10-21T00:40:58.408Z,0
2016-10-21T00:41:58.679Z,0
2016-10-21T00:42:58.637Z,0
2016-10-21T00:43:57.994Z,0
2016-10-21T00:44:58.266Z,0
2016-10-21T00:45:58.224Z,0
2016-10-21T00:46:57.879Z,0
2016-10-21T00:47:57.844Z,0
2016-10-21T00:48:58.105Z,0
2016-10-21T00:49:58.381Z,0
2016-10-21T00:50:58.068Z,0
2016-10-21T00:51:57.999Z,0
2016-10-21T00:52:57.959Z,0
2016-10-21T00:53:58.214Z,0
2016-10-21T00:54:58.186Z,0
2016-10-21T00:55:57.544Z,0
2016-10-21T00:56:58.105Z,0
2016-10-21T00:57:57.764Z,0
2016-10-21T00:58:57.728Z,0
2016-10-21T00:59:57.990Z,0
2016-10-21T01:00:57.650Z,0
2016-10-21T01:01:57.917Z,0
2016-10-21T01:02:57.587Z,0
2016-10-21T01:03:57.551Z,0
2016-10-21T01:04:57.503Z,0
2016-10-21T01:05:57.158Z,0
2016-10-21T01:06:56.828Z,0
2016-10-21T01:07:57.393Z,0
2016-10-21T01:08:57.345Z,0
2016-10-21T01:09:57.310Z,0
2016-10-21T01:10:57.272Z,0
2016-10-21T01:11:57.233Z,0
2016-10-21T01:12:57.200Z,0
2016-10-21T01:13:57.461Z,0
2016-10-21T01:14:57.121Z,0
2016-10-21T01:15:57.387Z,0
2016-10-21T01:16:57.043Z,0
2016-10-21T01:17:57.033Z,0
2016-10-21T01:18:57.267Z,0
2016-10-21T01:19:57.223Z,0
2016-10-21T01:20:57.193Z,0
2016-10-21T01:21:56.855Z,0
2016-10-21T01:22:57.117Z,0
2016-10-21T01:23:57.081Z,0
2016-10-21T01:24:56.433Z,0
2016-10-21T01:25:56.998Z,0
2016-10-21T01:26:56.964Z,0
2016-10-21T01:27:56.622Z,0
2016-10-21T01:28:56.279Z,0
2016-10-21T01:29:56.849Z,0
2016-10-21T01:30:56.808Z,0
2016-10-21T01:31:56.807Z,0
2016-10-21T01:32:56.769Z,0
2016-10-21T01:33:56.092Z,0
2016-10-21T01:34:56.654Z,0
2016-10-21T01:35:55.719Z,0
2016-10-21T01:36:56.288Z,0
2016-10-21T01:37:56.251Z,0
2016-10-21T01:38:56.536Z,0
2016-10-21T01:39:56.189Z,0
2016-10-21T01:40:55.830Z,0
2016-10-21T01:41:56.128Z,0
2016-10-21T01:42:56.352Z,0
2016-10-21T01:43:56.022Z,0
2016-10-21T01:44:55.670Z,0
2016-10-21T01:45:55.949Z,0
2016-10-21T01:46:56.232Z,0
2016-10-21T01:47:56.160Z,0
2016-10-21T01:48:55.824Z,0
2016-10-21T01:49:55.783Z,0
2016-10-21T01:50:55.452Z,0
2016-10-21T01:51:55.701Z,0
2016-10-21T01:52:55.970Z,0
2016-10-21T01:53:55.936Z,0
2016-10-21T01:54:55.298Z,0
2016-10-21T01:55:55.254Z,0
2016-10-21T01:56:55.811Z,0
2016-10-21T01:57:55.784Z,0
2016-10-21T01:58:55.437Z,0
2016-10-21T01:59:55.704Z,0
2016-10-21T02:00:55.666Z,0
2016-10-21T02:01:55.327Z,0
2016-10-21T02:02:55.320Z,0
2016-10-21T02:03:54.638Z,0
2016-10-21T02:04:55.256Z,0
2016-10-21T02:05:55.480Z,0
2016-10-21T02:06:55.130Z,0
2016-10-21T02:07:55.088Z,0
2016-10-21T02:08:55.056Z,0
2016-10-21T02:09:54.114Z,0
2016-10-21T02:10:54.682Z,0
2016-10-21T02:11:54.938Z,0
2016-10-21T02:12:54.603Z,0
2016-10-21T02:13:54.860Z,0
2016-10-21T02:14:54.527Z,0
2016-10-21T02:15:55.122Z,0
2016-10-21T02:16:54.749Z,0
2016-10-21T02:17:55.010Z,0
2016-10-21T02:18:54.671Z,0
2016-10-21T02:19:54.640Z,0
2016-10-21T02:20:54.295Z,0
2016-10-21T02:21:54.559Z,0
2016-10-21T02:22:54.524Z,0
2016-10-21T02:23:54.489Z,0
2016-10-21T02:24:54.750Z,0
2016-10-21T02:25:54.707Z,0
2016-10-21T02:26:54.369Z,0
2016-10-21T02:27:54.370Z,0
2016-10-21T02:28:54.301Z,0
2016-10-21T02:29:54.248Z,0
2016-10-21T02:30:54.518Z,0
2016-10-21T02:31:54.487Z,0
2016-10-21T02:32:54.450Z,0
2016-10-21T02:33:54.415Z,0
2016-10-21T02:34:54.366Z,0
2016-10-21T02:35:54.327Z,0
2016-10-21T02:36:54.017Z,0
2016-10-21T02:37:53.661Z,0
2016-10-21T02:38:53.910Z,0
2016-10-21T02:39:53.879Z,0
2016-10-21T02:40:53.841Z,0
2016-10-21T02:41:53.801Z,0
2016-10-21T02:42:53.764Z,0
2016-10-21T02:43:54.030Z,0
2016-10-21T02:44:53.687Z,0
2016-10-21T02:45:53.946Z,0
2016-10-21T02:46:53.615Z,0
2016-10-21T02:47:53.567Z,0
2016-10-21T02:48:53.839Z,0
2016-10-21T02:49:53.192Z,0
2016-10-21T02:50:53.462Z,0
2016-10-21T02:51:53.415Z,0
2016-10-21T02:52:53.375Z,0
2016-10-21T02:53:53.342Z,0
2016-10-21T02:54:53.301Z,0
2016-10-21T02:55:53.267Z,0
2016-10-21T02:56:52.930Z,0
2016-10-21T02:57:53.184Z,0
2016-10-21T02:58:53.450Z,0
2016-10-21T02:59:53.411Z,0
2016-10-21T03:00:53.384Z,0
2016-10-21T03:01:53.335Z,0
2016-10-21T03:02:53.295Z,0
2016-10-21T03:03:53.257Z,0
2016-10-21T03:04:53.226Z,0
2016-10-21T03:05:52.891Z,0
2016-10-21T03:06:52.843Z,0
2016-10-21T03:07:53.111Z,0
2016-10-21T03:08:53.079Z,0
2016-10-21T03:09:53.033Z,0
2016-10-21T03:10:52.398Z,0
2016-10-21T03:11:52.660Z,0
2016-10-21T03:12:52.952Z,0
2016-10-21T03:13:52.883Z,0
2016-10-21T03:14:52.855Z,0
2016-10-21T03:15:52.229Z,0
2016-10-21T03:16:52.468Z,0
2016-10-21T03:17:52.429Z,0
2016-10-21T03:18:52.089Z,0
2016-10-21T03:19:52.655Z,0
2016-10-21T03:20:52.615Z,0
2016-10-21T03:21:52.283Z,0
2016-10-21T03:22:51.944Z,0
2016-10-21T03:23:52.506Z,0
2016-10-21T03:24:51.868Z,0
2016-10-21T03:25:52.123Z,0
2016-10-21T03:26:52.380Z,0
2016-10-21T03:27:52.354Z,0
2016-10-21T03:28:52.310Z,0
2016-10-21T03:29:51.665Z,0
2016-10-21T03:30:51.936Z,0
2016-10-21T03:31:51.594Z,0
2016-10-21T03:32:51.862Z,0
2016-10-21T03:33:52.121Z,0
2016-10-21T03:34:52.105Z,0
2016-10-21T03:35:51.454Z,0
2016-10-21T03:36:51.702Z,0
2016-10-21T03:37:51.666Z,0
2016-10-21T03:38:51.625Z,0
2016-10-21T03:39:51.288Z,0
2016-10-21T03:40:51.547Z,0
2016-10-21T03:41:51.823Z,0
2016-10-21T03:42:51.816Z,0
2016-10-21T03:43:51.739Z,0
2016-10-21T03:44:51.400Z,0
2016-10-21T03:45:51.060Z,0
2016-10-21T03:46:51.640Z,0
2016-10-21T03:47:50.982Z,0
2016-10-21T03:48:51.241Z,0
2016-10-21T03:49:50.901Z,0
2016-10-21T03:50:51.475Z,0
2016-10-21T03:51:51.645Z,0
2016-10-21T03:52:51.425Z,0
2016-10-21T03:53:51.062Z,0
2016-10-21T03:54:51.323Z,0
2016-10-21T03:55:51.013Z,0
2016-10-21T03:56:51.241Z,0
2016-10-21T03:57:50.904Z,0
2016-10-21T03:58:51.168Z,0
2016-10-21T03:59:50.832Z,0
2016-10-21T04:00:50.787Z,0
2016-10-21T04:01:51.053Z,0
2016-10-21T04:02:50.725Z,0
2016-10-21T04:03:51.016Z,0
2016-10-21T04:04:50.674Z,0
2016-10-21T04:05:50.597Z,0
2016-10-21T04:06:50.294Z,0
2016-10-21T04:07:50.214Z,0
2016-10-21T04:08:50.789Z,0
2016-10-21T04:09:50.144Z,0
2016-10-21T04:10:50.748Z,0
2016-10-21T04:11:50.702Z,0
2016-10-21T04:12:50.025Z,0
2016-10-21T04:13:50.323Z,0
2016-10-21T04:14:50.248Z,0
2016-10-21T04:15:50.211Z,0
2016-10-21T04:16:50.478Z,0
2016-10-21T04:17:50.132Z,0
2016-10-21T04:18:50.097Z,0
2016-10-21T04:19:50.367Z,0
2016-10-21T04:20:50.019Z,0
2016-10-21T04:21:49.981Z,0
2016-10-21T04:22:49.945Z,0
2016-10-21T04:23:49.945Z,0
2016-10-21T04:24:49.869Z,0
2016-10-21T04:25:49.832Z,0
2016-10-21T04:26:50.086Z,0
2016-10-21T04:27:50.057Z,0
2016-10-21T04:28:49.714Z,0
2016-10-21T04:29:49.369Z,0
2016-10-21T04:30:49.950Z,0
2016-10-21T04:31:49.598Z,0
2016-10-21T04:32:49.560Z,0
2016-10-21T04:33:49.526Z,0
2016-10-21T04:34:49.784Z,0
2016-10-21T04:35:49.447Z,0
2016-10-21T04:36:49.404Z,0
2016-10-21T04:37:49.374Z,0
2016-10-21T04:38:49.625Z,0
2016-10-21T04:39:49.290Z,0
2016-10-21T04:40:48.953Z,0
2016-10-21T04:41:48.907Z,0
2016-10-21T04:42:48.924Z,0
2016-10-21T04:43:49.441Z,0
2016-10-21T04:44:49.400Z,0
2016-10-21T04:45:49.073Z,0
2016-10-21T04:46:49.351Z,0
2016-10-21T04:47:49.284Z,0
2016-10-21T04:48:49.250Z,0
2016-10-21T04:49:49.207Z,0
2016-10-21T04:50:48.872Z,0
2016-10-21T04:51:48.827Z,0
2016-10-21T04:52:48.796Z,0
2016-10-21T04:53:49.052Z,0
2016-10-21T04:54:48.756Z,0
2016-10-21T04:55:48.984Z,0
2016-10-21T04:56:48.947Z,0
2016-10-21T04:57:48.600Z,0
2016-10-21T04:58:48.559Z,0
2016-10-21T04:59:48.824Z,0
2016-10-21T05:00:48.827Z,0
2016-10-21T05:01:48.785Z,0
2016-10-21T05:02:48.722Z,0
2016-10-21T05:03:48.372Z,0
2016-10-21T05:04:48.374Z,0
2016-10-21T05:05:48.597Z,0
2016-10-21T05:06:48.557Z,0
2016-10-21T05:07:47.951Z,0
2016-10-21T05:08:48.178Z,0
2016-10-21T05:09:48.443Z,0
2016-10-21T05:10:48.448Z,0
2016-10-21T05:11:47.458Z,0
2016-10-21T05:12:48.328Z,0
2016-10-21T05:13:47.987Z,0
2016-10-21T05:14:47.343Z,0
2016-10-21T05:15:47.911Z,0
2016-10-21T05:16:47.575Z,0
2016-10-21T05:17:48.133Z,0
2016-10-21T05:18:47.797Z,0
2016-10-21T05:19:47.451Z,0
2016-10-21T05:20:47.720Z,0
2016-10-21T05:21:47.394Z,0
2016-10-21T05:22:47.949Z,0
2016-10-21T05:23:47.599Z,0
2016-10-21T05:24:47.560Z,0
2016-10-21T05:25:47.527Z,0
2016-10-21T05:26:47.497Z,0
2016-10-21T05:27:47.786Z,0
2016-10-21T05:28:47.422Z,0
2016-10-21T05:29:47.668Z,0
2016-10-21T05:30:47.332Z,0
2016-10-21T05:31:47.298Z,0
2016-10-21T05:32:47.260Z,0
2016-10-21T05:33:47.260Z,0
2016-10-21T05:34:47.484Z,0
2016-10-21T05:35:46.899Z,0
2016-10-21T05:36:47.447Z,0
2016-10-21T05:37:47.376Z,0
2016-10-21T05:38:46.746Z,0
2016-10-21T05:39:46.394Z,0
2016-10-21T05:40:46.956Z,0
2016-10-21T05:41:46.928Z,0
2016-10-21T05:42:46.879Z,0
2016-10-21T05:43:46.832Z,0
2016-10-21T05:44:46.801Z,0
2016-10-21T05:45:46.761Z,0
2016-10-21T05:46:47.022Z,0
2016-10-21T05:47:46.685Z,0
2016-10-21T05:48:46.641Z,0
2016-10-21T05:49:46.600Z,0
2016-10-21T05:50:46.314Z,0
2016-10-21T05:51:46.831Z,0
2016-10-21T05:52:45.886Z,0
2016-10-21T05:53:46.755Z,0
2016-10-21T05:54:46.133Z,0
2016-10-21T05:55:46.684Z,0
2016-10-21T05:56:46.333Z,0
2016-10-21T05:57:46.729Z,0
2016-10-21T05:58:46.267Z,0
2016-10-21T05:59:46.523Z,0
2016-10-21T06:00:45.915Z,0
2016-10-21T06:01:46.146Z,0
2016-10-21T06:02:46.410Z,0
2016-10-21T06:03:46.064Z,5
2016-10-21T06:04:46.344Z,5
2016-10-21T06:05:45.390Z,5
2016-10-21T06:06:46.253Z,5
2016-10-21T06:07:46.259Z,5
2016-10-21T06:08:46.181Z,5
2016-10-21T06:09:46.141Z,5
2016-10-21T06:10:45.832Z,5
2016-10-21T06:11:45.763Z,5
2016-10-21T06:12:45.734Z,5
2016-10-21T06:13:45.389Z,5
2016-10-21T06:14:45.042Z,5
2016-10-21T06:15:45.321Z,5
2016-10-21T06:16:45.568Z,5
2016-10-21T06:17:45.832Z,5
2016-10-21T06:18:45.495Z,5
2016-10-21T06:19:45.756Z,5
2016-10-21T06:20:45.720Z,10
2016-10-21T06:21:45.681Z,10
2016-10-21T06:22:45.655Z,10
2016-10-21T06:23:45.012Z,10
2016-10-21T06:24:45.267Z,10
2016-10-21T06:25:45.227Z,15
2016-10-21T06:26:45.489Z,15
2016-10-21T06:27:45.445Z,15
2016-10-21T06:28:45.108Z,15
2016-10-21T06:29:45.377Z,15
2016-10-21T06:30:45.337Z,20
2016-10-21T06:31:45.294Z,20
2016-10-21T06:32:44.975Z,20
2016-10-21T06:33:44.917Z,20
2016-10-21T06:34:45.180Z,20
2016-10-21T06:35:45.138Z,20
2016-10-21T06:36:44.800Z,20
2016-10-21T06:37:44.776Z,20
2016-10-21T06:38:45.023Z,20
2016-10-21T06:39:44.698Z,20
2016-10-21T06:40:44.656Z,20
2016-10-21T06:41:44.907Z,20
2016-10-21T06:42:44.875Z,15
2016-10-21T06:43:44.839Z,20
2016-10-21T06:44:44.799Z,20
2016-10-21T06:45:44.823Z,25
2016-10-21T06:46:44.765Z,25
2016-10-21T06:47:44.383Z,25
2016-10-21T06:48:44.730Z,25
2016-10-21T06:49:44.619Z,25
2016-10-21T06:50:44.570Z,20
2016-10-21T06:51:44.549Z,20
2016-10-21T06:52:44.196Z,20
2016-10-21T06:53:44.152Z,25
2016-10-21T06:54:44.414Z,25
2016-10-21T06:55:44.074Z,30
2016-10-21T06:56:44.375Z,35
2016-10-21T06:57:44.001Z,40
2016-10-21T06:58:44.303Z,40
2016-10-21T06:59:44.219Z,45
2016-10-21T07:00:44.182Z,45
2016-10-21T07:01:44.152Z,50
2016-10-21T07:02:44.112Z,50
2016-10-21T07:03:44.069Z,50
2016-10-21T07:04:44.030Z,45
2016-10-21T07:05:43.696Z,45
2016-10-21T07:06:43.669Z,45
2016-10-21T07:07:43.929Z,50
2016-10-21T07:08:43.279Z,50
2016-10-21T07:09:43.843Z,50
2016-10-21T07:10:43.209Z,50
2016-10-21T07:11:43.762Z,50
2016-10-21T07:12:43.734Z,60
2016-10-21T07:13:43.689Z,70
2016-10-21T07:14:43.654Z,75
2016-10-21T07:15:43.323Z,75
2016-10-21T07:16:43.580Z,75
2016-10-21T07:17:43.546Z,70
2016-10-21T07:18:42.896Z,65
2016-10-21T07:19:43.467Z,65
2016-10-21T07:20:43.467Z,60
2016-10-21T07:21:43.090Z,60
2016-10-21T07:22:42.751Z,50
2016-10-21T07:23:43.329Z,50
2016-10-21T07:24:43.277Z,45
2016-10-21T07:25:42.935Z,50
2016-10-21T07:26:43.200Z,50
2016-10-21T07:27:43.201Z,55
2016-10-21T07:28:42.532Z,60
2016-10-21T07:29:43.098Z,60
2016-10-21T07:30:42.781Z,55
2016-10-21T07:31:43.006Z,55
2016-10-21T07:32:42.975Z,55
2016-10-21T07:33:42.933Z,60
2016-10-21T07:34:42.903Z,65
2016-10-21T07:35:42.857Z,65
2016-10-21T07:36:42.518Z,70
2016-10-21T07:37:42.480Z,70
2016-10-21T07:38:42.738Z,70
2016-10-21T07:39:42.714Z,75
2016-10-21T07:40:42.367Z,80
2016-10-21T07:41:42.025Z,85
2016-10-21T07:42:42.296Z,85
2016-10-21T07:43:42.552Z,80
2016-10-21T07:44:42.217Z,70
2016-10-21T07:45:42.175Z,55
2016-10-21T07:46:42.145Z,50
2016-10-21T07:47:42.407Z,50
2016-10-21T07:48:42.064Z,50
2016-10-21T07:49:42.343Z,50
2016-10-21T07:50:42.289Z,55
2016-10-21T07:51:41.959Z,55
2016-10-21T07:52:41.911Z,55
2016-10-21T07:53:42.176Z,60
2016-10-21T07:54:41.844Z,65
2016-10-21T07:55:41.795Z,60
2016-10-21T07:56:42.064Z,55
2016-10-21T07:57:42.037Z,50
2016-10-21T07:58:41.683Z,55
2016-10-21T07:59:41.346Z,55
2016-10-21T08:00:41.915Z,55
2016-10-21T08:01:40.980Z,60
2016-10-21T08:02:41.845Z,55
2016-10-21T08:03:41.498Z,55
2016-10-21T08:04:41.770Z,50
2016-10-21T08:05:41.438Z,55
2016-10-21T08:06:41.090Z,60
2016-10-21T08:07:41.363Z,70
2016-10-21T08:08:40.706Z,75
2016-10-21T08:09:41.320Z,75
2016-10-21T08:10:41.249Z,85
2016-10-21T08:11:41.197Z,95
2016-10-21T08:12:41.480Z,95
2016-10-21T08:13:41.469Z,90
2016-10-21T08:14:41.092Z,80
2016-10-21T08:15:41.047Z,75
2016-10-21T08:16:41.024Z,80
2016-10-21T08:17:40.971Z,85
2016-10-21T08:18:40.936Z,100
2016-10-21T08:19:41.208Z,100
2016-10-21T08:20:40.862Z,95
2016-10-21T08:21:40.832Z,95
2016-10-21T08:22:41.091Z,105
2016-10-21T08:23:40.753Z,110
2016-10-21T08:24:40.719Z,110
2016-10-21T08:25:40.379Z,110
2016-10-21T08:26:40.952Z,105
2016-10-21T08:27:40.312Z,115
2016-10-21T08:28:40.874Z,120
2016-10-21T08:29:40.269Z,125
2016-10-21T08:30:40.797Z,135
2016-10-21T08:31:40.149Z,140
2016-10-21T08:32:40.719Z,150
2016-10-21T08:33:40.685Z,175
2016-10-21T08:34:39.773Z,190
2016-10-21T08:35:40.615Z,160
2016-10-21T08:36:40.275Z,140
2016-10-21T08:37:40.528Z,130
2016-10-21T08:38:40.192Z,135
2016-10-21T08:39:40.458Z,135
2016-10-21T08:40:40.418Z,140
2016-10-21T08:41:40.082Z,135
2016-10-21T08:42:40.049Z,125
2016-10-21T08:43:40.008Z,130
2016-10-21T08:44:40.277Z,140
2016-10-21T08:45:39.942Z,135
2016-10-21T08:46:39.902Z,135
2016-10-21T08:47:39.862Z,130
2016-10-21T08:48:39.867Z,120
2016-10-21T08:49:39.790Z,130
2016-10-21T08:50:39.472Z,140
2016-10-21T08:51:39.718Z,125
2016-10-21T08:52:39.376Z,100
2016-10-21T08:53:39.648Z,90
2016-10-21T08:54:39.314Z,90
2016-10-21T08:55:39.875Z,90
2016-10-21T08:56:39.241Z,100
2016-10-21T08:57:39.499Z,100
2016-10-21T08:58:39.767Z,110
2016-10-21T08:59:39.128Z,135
2016-10-21T09:00:39.384Z,150
2016-10-21T09:01:39.653Z,145
2016-10-21T09:02:39.621Z,140
2016-10-21T09:03:39.627Z,130
2016-10-21T09:04:39.574Z,125
2016-10-21T09:05:39.508Z,115
2016-10-21T09:06:38.864Z,105
2016-10-21T09:07:39.439Z,105
2016-10-21T09:08:39.144Z,105
2016-10-21T09:09:39.059Z,110
2016-10-21T09:10:39.022Z,125
2016-10-21T09:11:39.291Z,120
2016-10-21T09:12:38.947Z,140
2016-10-21T09:13:39.223Z,135
2016-10-21T09:14:38.869Z,130
2016-10-21T09:15:39.184Z,120
2016-10-21T09:16:38.507Z,135
2016-10-21T09:17:38.464Z,145
2016-10-21T09:18:39.027Z,145
2016-10-21T09:19:38.992Z,135
2016-10-21T09:20:38.788Z,140
2016-10-21T09:21:38.323Z,140
2016-10-21T09:22:38.281Z,130
2016-10-21T09:23:38.538Z,135
2016-10-21T09:24:38.811Z,135
2016-10-21T09:25:38.779Z,130
2016-10-21T09:26:38.736Z,125
2016-10-21T09:27:38.104Z,120
2016-10-21T09:28:38.669Z,120
2016-10-21T09:29:38.624Z,125
2016-10-21T09:30:38.292Z,120
2016-10-21T09:31:38.551Z,135
2016-10-21T09:32:38.211Z,155
2016-10-21T09:33:38.497Z,165
2016-10-21T09:34:37.835Z,160
2016-10-21T09:35:38.105Z,150
2016-10-21T09:36:38.063Z,130
2016-10-21T09:37:38.331Z,120
2016-10-21T09:38:37.992Z,110
2016-10-21T09:39:38.263Z,105
2016-10-21T09:40:37.928Z,95
2016-10-21T09:41:38.195Z,95
2016-10-21T09:42:37.847Z,100
2016-10-21T09:43:37.512Z,105
2016-10-21T09:44:38.078Z,100
2016-10-21T09:45:37.465Z,105
2016-10-21T09:46:37.133Z,105
2016-10-21T09:47:37.066Z,110
2016-10-21T09:48:37.934Z,120
2016-10-21T09:49:37.898Z,130
2016-10-21T09:50:37.252Z,135
2016-10-21T09:51:37.828Z,135
2016-10-21T09:52:37.791Z,125
2016-10-21T09:53:37.490Z,120
2016-10-21T09:54:37.406Z,115
2016-10-21T09:55:37.376Z,115
2016-10-21T09:56:37.639Z,110
2016-10-21T09:57:36.998Z,110
2016-10-21T09:58:37.607Z,110
2016-10-21T09:59:37.577Z,110
2016-10-21T10:00:37.499Z,105
2016-10-21T10:01:37.146Z,95
2016-10-21T10:02:37.115Z,90
2016-10-21T10:03:37.114Z,80
2016-10-21T10:04:37.340Z,70
2016-10-21T10:05:37.001Z,65
2016-10-21T10:06:36.965Z,60
2016-10-21T10:07:37.231Z,55
2016-10-21T10:08:37.194Z,55
2016-10-21T10:09:36.850Z,55
2016-10-21T10:10:36.818Z,60
2016-10-21T10:11:36.783Z,65
2016-10-21T10:12:36.456Z,65
2016-10-21T10:13:36.704Z,65
2016-10-21T10:14:36.986Z,70
2016-10-21T10:15:36.637Z,75
2016-10-21T10:16:36.893Z,90
2016-10-21T10:17:36.860Z,100
2016-10-21T10:18:36.831Z,110
2016-10-21T10:19:36.482Z,115
2016-10-21T10:20:36.443Z,110
2016-10-21T10:21:36.709Z,110
2016-10-21T10:22:36.083Z,110
2016-10-21T10:23:36.032Z,115
2016-10-21T10:24:36.347Z,120
2016-10-21T10:25:35.660Z,115
2016-10-21T10:26:36.524Z,120
2016-10-21T10:27:36.198Z,130
2016-10-21T10:28:36.169Z,140
2016-10-21T10:29:36.119Z,165
2016-10-21T10:30:36.080Z,185
2016-10-21T10:31:36.349Z,185
2016-10-21T10:32:35.999Z,175
2016-10-21T10:33:36.313Z,160
2016-10-21T10:34:35.937Z,145
2016-10-21T10:35:36.234Z,140
2016-10-21T10:36:35.866Z,135
2016-10-21T10:37:36.121Z,135
2016-10-21T10:38:36.092Z,130
2016-10-21T10:39:35.763Z,135
2016-10-21T10:40:35.721Z,140
2016-10-21T10:41:35.376Z,150
2016-10-21T10:42:35.642Z,155
2016-10-21T10:43:35.607Z,150
2016-10-21T10:44:35.904Z,145
2016-10-21T10:45:35.539Z,140
2016-10-21T10:46:34.888Z,135
2016-10-21T10:47:35.455Z,130
2016-10-21T10:48:35.773Z,125
2016-10-21T10:49:35.686Z,120
2016-10-21T10:50:35.648Z,120
2016-10-21T10:51:35.304Z,120
2016-10-21T10:52:35.276Z,130
2016-10-21T10:53:35.543Z,135
2016-10-21T10:54:35.208Z,145
2016-10-21T10:55:34.555Z,160
2016-10-21T10:56:35.435Z,175
2016-10-21T10:57:35.398Z,185
2016-10-21T10:58:35.060Z,195
2016-10-21T10:59:35.315Z,200
2016-10-21T11:00:34.981Z,205
2016-10-21T11:01:34.950Z,210
2016-10-21T11:02:34.907Z,230
2016-10-21T11:03:34.877Z,250
2016-10-21T11:04:35.147Z,245
2016-10-21T11:05:34.504Z,230
2016-10-21T11:06:35.079Z,220
2016-10-21T11:07:34.729Z,215
2016-10-21T11:08:34.994Z,225
2016-10-21T11:09:34.966Z,240
2016-10-21T11:10:34.616Z,245
2016-10-21T11:11:34.590Z,235
2016-10-21T11:12:34.858Z,230
2016-10-21T11:13:34.811Z,225
2016-10-21T11:14:34.520Z,220
2016-10-21T11:15:34.743Z,210
2016-10-21T11:16:34.714Z,190
2016-10-21T11:17:34.071Z,180
2016-10-21T11:18:34.027Z,170
2016-10-21T11:19:34.602Z,160
2016-10-21T11:20:34.301Z,170
2016-10-21T11:21:34.524Z,175
2016-10-21T11:22:34.184Z,180
2016-10-21T11:23:34.468Z,195
2016-10-21T11:24:34.423Z,190
2016-10-21T11:25:34.435Z,170
2016-10-21T11:26:33.746Z,170
2016-10-21T11:27:34.010Z,170
2016-10-21T11:28:33.975Z,165
2016-10-21T11:29:34.238Z,155
2016-10-21T11:30:33.307Z,160
2016-10-21T11:31:33.903Z,170
2016-10-21T11:32:33.534Z,185
2016-10-21T11:33:34.104Z,205
2016-10-21T11:34:33.794Z,220
2016-10-21T11:35:34.033Z,240
2016-10-21T11:36:33.695Z,245
2016-10-21T11:37:33.665Z,255
2016-10-21T11:38:33.922Z,255
2016-10-21T11:39:33.582Z,245
2016-10-21T11:40:33.854Z,230
2016-10-21T11:41:33.850Z,225
2016-10-21T11:42:33.185Z,225
2016-10-21T11:43:33.441Z,235
2016-10-21T11:44:33.715Z,225
2016-10-21T11:45:33.675Z,205
2016-10-21T11:46:33.669Z,185
2016-10-21T11:47:33.334Z,175
2016-10-21T11:48:33.564Z,165
2016-10-21T11:49:33.225Z,145
2016-10-21T11:50:32.892Z,130
2016-10-21T11:51:33.162Z,130
2016-10-21T11:52:33.416Z,120
2016-10-21T11:53:33.079Z,135
2016-10-21T11:54:32.454Z,135
2016-10-21T11:55:33.315Z,130
2016-10-21T11:56:32.673Z,130
2016-10-21T11:57:32.939Z,125
2016-10-21T11:58:32.909Z,120
2016-10-21T11:59:33.179Z,125
2016-10-21T12:00:32.836Z,130
2016-10-21T12:01:32.846Z,140
2016-10-21T12:02:32.474Z,140
2016-10-21T12:03:31.824Z,130
2016-10-21T12:04:32.406Z,135
2016-10-21T12:05:32.363Z,135
2016-10-21T12:06:32.933Z,145
2016-10-21T12:07:32.587Z,180
2016-10-21T12:08:32.866Z,205
2016-10-21T12:09:32.833Z,205
2016-10-21T12:10:32.514Z,195
2016-10-21T12:11:32.748Z,195
2016-10-21T12:12:32.140Z,205
2016-10-21T12:13:32.118Z,210
2016-10-21T12:14:32.638Z,185
2016-10-21T12:15:32.322Z,175
2016-10-21T12:16:32.273Z,175
2016-10-21T12:17:31.927Z,185
2016-10-21T12:18:32.498Z,185
2016-10-21T12:19:32.163Z,175
2016-10-21T12:20:32.162Z,180
2016-10-21T12:21:32.388Z,165
2016-10-21T12:22:32.060Z,160
2016-10-21T12:23:32.024Z,175
2016-10-21T12:24:31.977Z,190
2016-10-21T12:25:31.643Z,200
2016-10-21T12:26:32.220Z,205
2016-10-21T12:27:31.872Z,200
2016-10-21T12:28:31.547Z,195
2016-10-21T12:29:32.103Z,185
2016-10-21T12:30:31.467Z,170
2016-10-21T12:31:32.030Z,155
2016-10-21T12:32:31.695Z,140
2016-10-21T12:33:31.352Z,125
2016-10-21T12:34:31.928Z,110
2016-10-21T12:35:31.891Z,105
2016-10-21T12:36:31.858Z,105
2016-10-21T12:37:31.519Z,100
2016-10-21T12:38:31.793Z,95
2016-10-21T12:39:31.447Z,100
2016-10-21T12:40:31.408Z,105
2016-10-21T12:41:31.371Z,115
2016-10-21T12:42:31.637Z,115
2016-10-21T12:43:31.599Z,110
2016-10-21T12:44:31.606Z,95
2016-10-21T12:45:31.224Z,80
2016-10-21T12:46:31.190Z,75
2016-10-21T12:47:31.460Z,75
2016-10-21T12:48:31.421Z,80
2016-10-21T12:49:31.083Z,90
2016-10-21T12:50:31.389Z,105
2016-10-21T12:51:31.012Z,125
2016-10-21T12:52:31.274Z,135
2016-10-21T12:53:30.628Z,140
2016-10-21T12:54:30.930Z,135
2016-10-21T12:55:31.173Z,130
2016-10-21T12:56:30.827Z,125
2016-10-21T12:57:31.088Z,110
2016-10-21T12:58:30.452Z,95
2016-10-21T12:59:30.721Z,90
2016-10-21T13:00:30.688Z,95
2016-10-21T13:01:30.951Z,105
2016-10-21T13:02:30.927Z,105
2016-10-21T13:03:30.571Z,105
2016-10-21T13:04:30.832Z,110
2016-10-21T13:05:30.798Z,115
2016-10-21T13:06:30.786Z,115
2016-10-21T13:07:30.489Z,110
2016-10-21T13:08:30.692Z,120
2016-10-21T13:09:30.652Z,125
2016-10-21T13:10:30.651Z,120
2016-10-21T13:11:30.578Z,100
2016-10-21T13:12:30.239Z,85
2016-10-21T13:13:30.203Z,70
2016-10-21T13:14:30.468Z,60
2016-10-21T13:15:30.426Z,55
2016-10-21T13:16:29.794Z,55
2016-10-21T13:17:30.057Z,55
2016-10-21T13:18:30.323Z,65
2016-10-21T13:19:29.992Z,75
2016-10-21T13:20:29.949Z,95
2016-10-21T13:21:29.904Z,110
2016-10-21T13:22:29.873Z,115
2016-10-21T13:23:29.868Z,110
2016-10-21T13:24:29.825Z,110
2016-10-21T13:25:30.069Z,105
2016-10-21T13:26:30.027Z,100
2016-10-21T13:27:29.688Z,100
2016-10-21T13:28:29.344Z,105
2016-10-21T13:29:29.947Z,120
2016-10-21T13:30:29.889Z,120
2016-10-21T13:31:29.581Z,125
2016-10-21T13:32:29.503Z,125
2016-10-21T13:33:29.802Z,115
2016-10-21T13:34:29.731Z,110
2016-10-21T13:35:29.681Z,115
2016-10-21T13:36:29.344Z,125
2016-10-21T13:37:29.356Z,130
2016-10-21T13:38:29.586Z,130
2016-10-21T13:39:29.549Z,125
2016-10-21T13:40:28.921Z,120
2016-10-21T13:41:29.464Z,120
2016-10-21T13:42:29.440Z,125
2016-10-21T13:43:28.791Z,130
2016-10-21T13:44:28.748Z,135
2016-10-21T13:45:28.419Z,135
2016-10-21T13:46:28.979Z,130
2016-10-21T13:47:29.254Z,125
2016-10-21T13:48:28.946Z,120
2016-10-21T13:49:29.201Z,120
2016-10-21T13:50:28.861Z,115
2016-10-21T13:51:28.796Z,115
2016-10-21T13:52:28.147Z,120
2016-10-21T13:53:28.715Z,120
2016-10-21T13:54:28.678Z,120
2016-10-21T13:55:28.650Z,120
2016-10-21T13:56:28.912Z,115
2016-10-21T13:57:28.272Z,115
2016-10-21T13:58:28.525Z,110
2016-10-21T13:59:28.491Z,110
2016-10-21T14:00:28.454Z,110
2016-10-21T14:01:28.776Z,110
2016-10-21T14:02:28.685Z,120
2016-10-21T14:03:28.346Z,125
2016-10-21T14:04:28.621Z,125
2016-10-21T14:05:27.974Z,120
2016-10-21T14:06:27.928Z,120
2016-10-21T14:07:28.503Z,120
2016-10-21T14:08:28.157Z,115
2016-10-21T14:09:28.121Z,115
2016-10-21T14:10:28.425Z,125
2016-10-21T14:11:27.749Z,130
2016-10-21T14:12:28.012Z,125
2016-10-21T14:13:27.668Z,130
2016-10-21T14:14:28.242Z,135
2016-10-21T14:15:28.204Z,140
2016-10-21T14:16:28.169Z,140